createdAt,value
2023-04-02T00:00:22.261Z,99399.28
2023-04-02T00:03:24.686Z,99412.34
2023-04-02T00:06:44.740Z,99413.03
2023-04-02T00:09:47.335Z,99425.53
2023-04-02T00:13:05.805Z,99417.50
2023-04-02T00:16:13.186Z,99418.72
2023-04-02T00:19:23.329Z,99420.38
2023-04-02T00:22:29.498Z,99423.22
2023-04-02T00:25:43.230Z,99432.22
2023-04-02T00:28:45.465Z,99428.00
2023-04-02T00:31:50.607Z,99426.56
2023-04-02T00:34:54.378Z,99431.19
2023-04-02T00:37:56.969Z,99435.25
2023-04-02T00:41:03.027Z,99427.53
2023-04-02T00:44:06.124Z,99428.31
2023-04-02T00:47:17.189Z,99430.97
2023-04-02T00:50:39.144Z,99438.59
2023-04-02T00:53:44.598Z,99433.91
2023-04-02T00:56:50.756Z,99436.91
2023-04-02T00:59:55.682Z,99437.97
2023-04-02T01:03:16.591Z,99436.63
2023-04-02T01:06:20.593Z,99432.34
2023-04-02T01:09:53.401Z,99442.28
2023-04-02T01:13:08.911Z,99431.28
2023-04-02T01:16:20.643Z,99440.72
2023-04-02T01:19:32.185Z,99433.16
2023-04-02T01:22:48.150Z,99436.47
2023-04-02T01:25:53.366Z,99436.06
2023-04-02T01:29:03.071Z,99423.91
2023-04-02T01:32:15.616Z,99432.25
2023-04-02T01:35:18.133Z,99435.84
2023-04-02T01:38:29.287Z,99435.00
2023-04-02T01:41:49.305Z,99436.56
2023-04-02T01:44:54.212Z,99449.50
2023-04-02T01:47:56.840Z,99444.53
2023-04-02T01:51:01.002Z,99441.44
2023-04-02T01:54:06.233Z,99447.25
2023-04-02T01:57:09.299Z,99445.41
2023-04-02T02:00:15.053Z,99451.94
2023-04-02T02:03:20.766Z,99442.97
2023-04-02T02:06:24.003Z,99462.84
2023-04-02T02:09:31.022Z,99452.03
2023-04-02T02:12:33.315Z,99463.91
2023-04-02T02:15:39.076Z,99461.06
2023-04-02T02:18:41.915Z,99461.38
2023-04-02T02:21:56.931Z,99467.56
2023-04-02T02:25:03.043Z,99467.38
2023-04-02T02:28:23.692Z,99465.53
2023-04-02T02:31:31.054Z,99465.03
2023-04-02T02:34:39.723Z,99463.38
2023-04-02T02:37:46.995Z,99467.66
2023-04-02T02:40:56.652Z,99462.88
2023-04-02T02:44:14.588Z,99460.09
2023-04-02T02:47:22.481Z,99463.69
2023-04-02T02:50:31.339Z,99464.25
2023-04-02T02:53:46.867Z,99468.56
2023-04-02T02:57:04.136Z,99459.59
2023-04-02T03:00:09.768Z,99462.50
2023-04-02T03:03:22.197Z,99459.03
2023-04-02T03:06:28.787Z,99461.00
2023-04-02T03:09:41.974Z,99463.69
2023-04-02T03:13:08.520Z,99467.28
2023-04-02T03:16:31.319Z,99464.47
2023-04-02T03:19:51.342Z,99470.16
2023-04-02T03:23:08.992Z,99474.06
2023-04-02T03:26:19.202Z,99475.13
2023-04-02T03:29:27.204Z,99471.44
2023-04-02T03:32:38.763Z,99476.97
2023-04-02T03:35:48.244Z,99474.28
2023-04-02T03:38:57.041Z,99479.63
2023-04-02T03:42:04.958Z,99484.53
2023-04-02T03:45:21.380Z,99479.28
2023-04-02T03:48:39.553Z,99482.97
2023-04-02T03:52:10.591Z,99481.47
2023-04-02T03:55:24.305Z,99485.66
2023-04-02T03:58:51.771Z,99486.72
2023-04-02T04:02:01.904Z,99498.94
2023-04-02T04:05:06.915Z,99505.59
2023-04-02T04:08:27.122Z,99500.28
2023-04-02T04:11:35.761Z,99503.66
2023-04-02T04:14:45.976Z,99505.03
2023-04-02T04:17:57.840Z,99500.66
2023-04-02T04:21:30.981Z,99504.47
2023-04-02T04:24:45.604Z,99504.69
2023-04-02T04:28:08.276Z,99504.59
2023-04-02T04:31:34.038Z,99503.84
2023-04-02T04:34:47.018Z,99508.25
2023-04-02T04:38:03.881Z,99508.28
2023-04-02T04:41:17.432Z,99516.31
2023-04-02T04:44:25.385Z,99504.88
2023-04-02T04:47:42.625Z,99519.44
2023-04-02T04:50:50.690Z,99522.56
2023-04-02T04:53:55.271Z,99512.25
2023-04-02T04:57:04.054Z,99510.50
2023-04-02T05:00:18.614Z,99525.22
2023-04-02T05:03:55.590Z,99532.28
2023-04-02T05:07:14.315Z,99532.81
2023-04-02T05:10:26.550Z,99521.75
2023-04-02T05:14:01.557Z,99527.44
2023-04-02T05:17:04.472Z,99535.56
2023-04-02T05:20:16.470Z,99534.25
2023-04-02T05:23:48.274Z,99540.69
2023-04-02T05:26:53.398Z,99545.84
2023-04-02T05:30:23.206Z,99535.19
2023-04-02T05:33:32.334Z,99539.53
2023-04-02T05:36:38.552Z,99546.72
2023-04-02T05:39:50.285Z,99540.56
2023-04-02T05:42:55.716Z,99554.63
2023-04-02T05:46:03.774Z,99565.09
2023-04-02T05:49:14.095Z,99559.03
2023-04-02T05:52:23.589Z,99551.69
2023-04-02T05:55:43.256Z,99564.00
2023-04-02T05:59:11.900Z,99568.28
2023-04-02T06:02:39.670Z,99568.19
2023-04-02T06:05:46.152Z,99571.03
2023-04-02T06:08:57.775Z,99569.13
2023-04-02T06:12:24.812Z,99574.56
2023-04-02T06:15:30.044Z,99568.84
2023-04-02T06:18:37.448Z,99567.25
2023-04-02T06:21:45.783Z,99568.28
2023-04-02T06:24:56.304Z,99579.75
2023-04-02T06:28:01.726Z,99574.25
2023-04-02T06:31:10.937Z,99582.22
2023-04-02T06:34:22.463Z,99587.44
2023-04-02T06:37:35.839Z,99590.19
2023-04-02T06:40:58.931Z,99593.97
2023-04-02T06:44:18.655Z,99589.50
2023-04-02T06:47:38.672Z,99605.09
2023-04-02T06:50:49.165Z,99599.81
2023-04-02T06:54:16.139Z,99605.31
2023-04-02T06:57:20.731Z,99601.22
2023-04-02T07:00:33.898Z,99606.19
2023-04-02T07:03:36.910Z,99601.97
2023-04-02T07:06:51.266Z,99592.03
2023-04-02T07:09:54.330Z,99613.91
2023-04-02T07:12:56.647Z,99617.91
2023-04-02T07:15:59.914Z,99612.38
2023-04-02T07:19:04.177Z,99612.97
2023-04-02T07:22:09.405Z,99609.25
2023-04-02T07:25:15.988Z,99621.56
2023-04-02T07:28:19.194Z,99620.56
2023-04-02T07:31:25.951Z,99617.25
2023-04-02T07:34:28.376Z,99629.81
2023-04-02T07:37:31.396Z,99632.25
2023-04-02T07:40:33.726Z,99626.19
2023-04-02T07:43:36.243Z,99638.28
2023-04-02T07:46:38.547Z,99648.97
2023-04-02T07:49:40.952Z,99636.94
2023-04-02T07:52:43.985Z,99644.50
2023-04-02T07:55:46.255Z,99641.34
2023-04-02T07:58:49.071Z,99652.03
2023-04-02T08:01:55.183Z,99647.22
2023-04-02T08:04:57.426Z,99643.81
2023-04-02T08:07:59.705Z,99639.22
2023-04-02T08:11:01.970Z,99643.03
2023-04-02T08:14:04.511Z,99653.63
2023-04-02T08:17:06.786Z,99662.53
2023-04-02T08:20:16.292Z,99654.72
2023-04-02T08:23:18.588Z,99652.94
2023-04-02T08:26:21.129Z,99656.34
2023-04-02T08:29:23.548Z,99655.69
2023-04-02T08:32:29.021Z,99662.31
2023-04-02T08:35:31.398Z,99667.56
2023-04-02T08:38:33.762Z,99667.03
2023-04-02T08:42:06.587Z,99668.44
2023-04-02T08:45:25.410Z,99667.38
2023-04-02T08:48:44.236Z,99668.22
2023-04-02T08:51:47.482Z,99670.13
2023-04-02T08:54:50.491Z,99662.69
2023-04-02T08:58:07.468Z,99677.53
2023-04-02T09:01:31.688Z,99679.13
2023-04-02T09:04:34.657Z,99682.06
2023-04-02T09:07:37.039Z,99687.19
2023-04-02T09:10:45.573Z,99683.84
2023-04-02T09:13:55.529Z,99690.91
2023-04-02T09:17:03.950Z,99684.03
2023-04-02T09:20:26.516Z,99694.72
2023-04-02T09:23:29.242Z,99687.09
2023-04-02T09:26:34.090Z,99702.81
2023-04-02T09:29:43.421Z,99694.47
2023-04-02T09:32:53.427Z,99693.38
2023-04-02T09:35:57.898Z,99698.13
2023-04-02T09:39:06.878Z,99708.75
2023-04-02T09:42:35.149Z,99713.63
2023-04-02T09:45:38.046Z,99722.50
2023-04-02T09:48:58.484Z,99713.22
2023-04-02T09:52:29.672Z,99713.44
2023-04-02T09:55:32.229Z,99702.69
2023-04-02T09:58:34.503Z,99704.56
2023-04-02T10:01:39.650Z,99714.13
2023-04-02T10:04:48.267Z,99720.19
2023-04-02T10:07:53.334Z,99717.16
2023-04-02T10:10:59.602Z,99706.06
2023-04-02T10:14:38.086Z,99716.53
2023-04-02T10:17:41.016Z,99714.22
2023-04-02T10:20:51.276Z,99715.88
2023-04-02T10:23:55.559Z,99707.44
2023-04-02T10:27:22.740Z,99715.69
2023-04-02T10:30:32.050Z,99719.19
2023-04-02T10:33:37.650Z,99714.97
2023-04-02T10:36:57.886Z,99713.00
2023-04-02T10:40:10.733Z,99710.34
2023-04-02T10:43:30.962Z,99709.63
2023-04-02T10:46:36.134Z,99706.03
2023-04-02T10:49:44.072Z,99708.22
2023-04-02T10:52:53.047Z,99705.03
2023-04-02T10:56:03.458Z,99703.47
2023-04-02T10:59:15.706Z,99689.22
2023-04-02T11:02:36.149Z,99699.06
2023-04-02T11:05:50.940Z,99706.16
2023-04-02T11:09:01.272Z,99700.81
2023-04-02T11:12:06.373Z,99702.00
2023-04-02T11:15:19.198Z,99697.19
2023-04-02T11:18:29.782Z,99679.81
2023-04-02T11:21:55.032Z,99696.25
2023-04-02T11:25:01.443Z,99697.50
2023-04-02T11:28:20.870Z,99696.41
2023-04-02T11:31:23.309Z,99665.75
2023-04-02T11:34:43.963Z,99684.88
2023-04-02T11:37:46.519Z,99677.03
2023-04-02T11:40:53.073Z,99674.78
2023-04-02T11:44:01.420Z,99676.63
2023-04-02T11:47:25.183Z,99678.06
2023-04-02T11:50:31.996Z,99672.63
2023-04-02T11:53:35.015Z,99684.53
2023-04-02T11:56:53.056Z,99663.28
2023-04-02T12:00:11.190Z,99666.13
2023-04-02T12:03:36.109Z,99673.19
2023-04-02T12:06:39.936Z,99665.69
2023-04-02T12:09:49.758Z,99668.78
2023-04-02T12:12:52.144Z,99666.47
2023-04-02T12:15:59.582Z,99656.66
2023-04-02T12:19:07.994Z,99661.53
2023-04-02T12:22:20.053Z,99663.13
2023-04-02T12:25:46.566Z,99641.56
2023-04-02T12:28:48.788Z,99658.69
2023-04-02T12:31:51.257Z,99662.56
2023-04-02T12:34:55.818Z,99663.97
2023-04-02T12:37:58.181Z,99653.91
2023-04-02T12:41:16.189Z,99649.69
2023-04-02T12:44:21.985Z,99646.94
2023-04-02T12:47:25.102Z,99640.75
2023-04-02T12:50:27.445Z,99648.31
2023-04-02T12:53:36.689Z,99632.41
2023-04-02T12:56:39.020Z,99635.22
2023-04-02T12:59:42.918Z,99637.78
2023-04-02T13:02:47.386Z,99645.81
2023-04-02T13:05:52.824Z,99644.88
2023-04-02T13:08:55.571Z,99640.69
2023-04-02T13:11:58.432Z,99653.59
2023-04-02T13:15:03.879Z,99653.06
2023-04-02T13:18:20.774Z,99653.91
2023-04-02T13:21:28.429Z,99652.22
2023-04-02T13:24:33.188Z,99646.09
2023-04-02T13:27:35.798Z,99635.44
2023-04-02T13:30:38.219Z,99645.59
2023-04-02T13:33:40.554Z,99647.47
2023-04-02T13:36:42.876Z,99652.16
2023-04-02T13:39:45.114Z,99654.47
2023-04-02T13:42:49.899Z,99644.50
2023-04-02T13:45:54.436Z,99650.44
2023-04-02T13:48:57.694Z,99644.50
2023-04-02T13:52:04.371Z,99633.25
2023-04-02T13:55:06.965Z,99635.84
2023-04-02T13:58:10.737Z,99631.03
2023-04-02T14:01:14.414Z,99639.22
2023-04-02T14:04:30.073Z,99631.63
2023-04-02T14:08:06.654Z,99638.19
2023-04-02T14:11:18.082Z,99647.50
2023-04-02T14:14:55.646Z,99642.56
2023-04-02T14:18:07.147Z,99643.34
2023-04-02T14:21:26.686Z,99650.81
2023-04-02T14:24:37.638Z,99653.06
2023-04-02T14:27:40.399Z,99656.84
2023-04-02T14:30:57.115Z,99661.81
2023-04-02T14:34:21.072Z,99675.91
2023-04-02T14:37:36.936Z,99676.16
2023-04-02T14:40:46.307Z,99688.28
2023-04-02T14:43:55.690Z,99709.34
2023-04-02T14:47:19.108Z,99714.41
2023-04-02T14:50:39.132Z,99726.22
2023-04-02T14:53:58.798Z,99719.66
2023-04-02T14:57:17.000Z,99737.91
2023-04-02T15:00:31.801Z,99732.50
2023-04-02T15:03:43.398Z,99743.34
2023-04-02T15:06:52.515Z,99751.78
2023-04-02T15:10:19.631Z,99764.72
2023-04-02T15:13:30.648Z,99763.28
2023-04-02T15:16:36.538Z,99781.88
2023-04-02T15:19:39.711Z,99781.47
2023-04-02T15:23:07.295Z,99768.97
2023-04-02T15:26:21.734Z,99784.38
2023-04-02T15:30:01.944Z,99783.97
2023-04-02T15:33:44.278Z,99778.38
2023-04-02T15:37:05.040Z,99771.91
2023-04-02T15:40:16.056Z,99770.13
2023-04-02T15:43:24.696Z,99759.78
2023-04-02T15:46:51.295Z,99763.56
2023-04-02T15:50:21.982Z,99767.97
2023-04-02T15:53:48.223Z,99755.72
2023-04-02T15:57:11.307Z,99755.94
2023-04-02T16:00:27.820Z,99759.00
2023-04-02T16:03:44.079Z,99751.44
2023-04-02T16:07:34.194Z,99753.94
2023-04-02T16:10:42.586Z,99757.09
2023-04-02T16:13:45.685Z,99766.56
2023-04-02T16:16:50.493Z,99772.94
2023-04-02T16:20:17.565Z,99766.41
2023-04-02T16:23:32.299Z,99780.59
2023-04-02T16:27:04.936Z,99789.78
2023-04-02T16:30:28.919Z,99804.13
2023-04-02T16:33:46.403Z,99810.03
2023-04-02T16:36:54.817Z,99812.97
2023-04-02T16:40:24.481Z,99812.13
2023-04-02T16:43:45.670Z,99818.13
2023-04-02T16:47:12.574Z,99826.34
2023-04-02T16:50:44.745Z,99825.09
2023-04-02T16:54:36.729Z,99822.03
2023-04-02T16:58:17.797Z,99826.97
2023-04-02T17:01:20.042Z,99822.38
2023-04-02T17:04:46.560Z,99836.97
2023-04-02T17:08:04.932Z,99838.84
2023-04-02T17:11:10.898Z,99849.25
2023-04-02T17:15:07.381Z,99842.16
2023-04-02T17:18:20.055Z,99826.13
2023-04-02T17:21:27.375Z,99851.03
2023-04-02T17:24:35.936Z,99851.31
2023-04-02T17:27:43.620Z,99842.69
2023-04-02T17:30:49.545Z,99857.28
2023-04-02T17:33:51.820Z,99857.97
2023-04-02T17:36:54.023Z,99877.75
2023-04-02T17:40:15.076Z,99888.00
2023-04-02T17:43:28.983Z,99889.38
2023-04-02T17:46:52.800Z,99894.81
2023-04-02T17:50:03.874Z,99905.84
2023-04-02T17:53:20.628Z,99907.53
2023-04-02T17:57:06.389Z,99905.59
2023-04-02T18:00:45.738Z,99918.94
2023-04-02T18:04:29.897Z,99929.66
2023-04-02T18:07:50.229Z,99939.72
2023-04-02T18:11:10.848Z,99943.19
2023-04-02T18:14:31.973Z,99959.56
2023-04-02T18:17:39.826Z,99957.00
2023-04-02T18:21:06.476Z,99962.88
2023-04-02T18:24:21.284Z,99970.72
2023-04-02T18:27:44.621Z,99978.59
2023-04-02T18:31:40.740Z,99982.31
2023-04-02T18:34:51.859Z,99987.59
2023-04-02T18:38:00.926Z,99996.72
2023-04-02T18:41:21.863Z,100004.47
2023-04-02T18:44:31.537Z,100004.28
2023-04-02T18:48:06.951Z,100010.75
2023-04-02T18:51:17.526Z,100004.75
2023-04-02T18:54:29.820Z,100021.56
2023-04-02T18:57:36.086Z,100022.97
2023-04-02T19:00:45.021Z,100018.09
2023-04-02T19:03:56.833Z,100029.19
2023-04-02T19:07:13.017Z,100033.41
2023-04-02T19:10:31.084Z,100032.47
2023-04-02T19:13:33.348Z,100030.66
2023-04-02T19:16:43.660Z,100031.19
2023-04-02T19:20:22.924Z,100033.31
2023-04-02T19:23:56.123Z,100041.19
2023-04-02T19:27:32.797Z,100055.63
2023-04-02T19:31:12.940Z,100055.66
2023-04-02T19:34:33.967Z,100056.47
2023-04-02T19:37:51.588Z,100067.19
2023-04-02T19:40:59.853Z,100069.75
2023-04-02T19:44:02.255Z,100077.59
2023-04-02T19:47:05.190Z,100081.50
2023-04-02T19:50:08.245Z,100081.50
2023-04-02T19:53:11.153Z,100090.97
2023-04-02T19:56:13.508Z,100098.25
2023-04-02T19:59:18.408Z,100099.63
2023-04-02T20:02:21.420Z,100100.72
2023-04-02T20:05:23.678Z,100109.91
2023-04-02T20:08:26.978Z,100120.13
2023-04-02T20:11:29.715Z,100104.75
2023-04-02T20:14:32.422Z,100126.22
2023-04-02T20:17:34.756Z,100128.59
2023-04-02T20:20:38.050Z,100128.34
2023-04-02T20:23:41.181Z,100144.94
2023-04-02T20:26:43.469Z,100147.78
2023-04-02T20:29:46.193Z,100140.66
2023-04-02T20:32:48.687Z,100144.16
2023-04-02T20:35:52.397Z,100152.53
2023-04-02T20:38:54.922Z,100147.56
2023-04-02T20:42:01.214Z,100162.03
2023-04-02T20:45:05.237Z,100172.34
2023-04-02T20:48:07.550Z,100168.38
2023-04-02T20:51:13.041Z,100183.09
2023-04-02T20:54:15.486Z,100180.00
2023-04-02T20:57:19.711Z,100194.69
2023-04-02T21:00:22.624Z,100199.69
2023-04-02T21:03:24.857Z,100200.50
2023-04-02T21:06:33.265Z,100213.34
2023-04-02T21:09:35.771Z,100206.50
2023-04-02T21:12:37.969Z,100211.75
2023-04-02T21:15:43.308Z,100218.88
2023-04-02T21:18:46.977Z,100225.66
2023-04-02T21:21:49.266Z,100229.88
2023-04-02T21:24:51.534Z,100232.25
2023-04-02T21:27:53.842Z,100228.56
2023-04-02T21:31:06.312Z,100246.16
2023-04-02T21:34:12.347Z,100238.78
2023-04-02T21:37:14.627Z,100243.50
2023-04-02T21:40:16.960Z,100245.59
2023-04-02T21:43:19.490Z,100233.03
2023-04-02T21:46:24.709Z,100254.00
2023-04-02T21:49:28.007Z,100252.94
2023-04-02T21:52:30.298Z,100255.31
2023-04-02T21:55:32.489Z,100268.69
2023-04-02T21:58:35.034Z,100250.31
2023-04-02T22:01:40.207Z,100269.75
2023-04-02T22:04:42.564Z,100264.78
2023-04-02T22:07:44.810Z,100263.97
2023-04-02T22:10:47.054Z,100271.88
2023-04-02T22:13:49.884Z,100262.69
2023-04-02T22:16:52.378Z,100270.03
2023-04-02T22:19:54.729Z,100269.78
2023-04-02T22:22:56.989Z,100269.50
2023-04-02T22:26:00.892Z,100271.59
2023-04-02T22:29:04.506Z,100278.69
2023-04-02T22:32:06.727Z,100276.06
2023-04-02T22:35:09.284Z,100292.59
2023-04-02T22:38:11.593Z,100296.25
2023-04-02T22:41:16.279Z,100302.00
2023-04-02T22:44:18.526Z,100296.50
2023-04-02T22:47:21.066Z,100298.81
2023-04-02T22:50:23.463Z,100298.53
2023-04-02T22:53:26.410Z,100301.38
2023-04-02T22:56:32.134Z,100299.50
2023-04-02T22:59:34.828Z,100313.66
2023-04-02T23:02:39.996Z,100306.06
2023-04-02T23:05:42.685Z,100319.69
2023-04-02T23:08:45.819Z,100313.88
2023-04-02T23:11:48.093Z,100319.63
2023-04-02T23:14:50.406Z,100316.47
2023-04-02T23:17:52.775Z,100323.03
2023-04-02T23:20:55.685Z,100323.59
2023-04-02T23:24:01.270Z,100324.13
2023-04-02T23:27:03.656Z,100329.09
2023-04-02T23:30:08.809Z,100332.47
2023-04-02T23:33:11.059Z,100317.78
2023-04-02T23:36:26.900Z,100330.31
2023-04-02T23:39:29.690Z,100324.84
2023-04-02T23:42:31.874Z,100325.31
2023-04-02T23:45:34.119Z,100319.31
2023-04-02T23:48:36.364Z,100327.72
2023-04-02T23:51:38.788Z,100328.47
2023-04-02T23:54:41.128Z,100330.00
2023-04-02T23:57:43.425Z,100322.38
